Time;durP1;ratioP1;P1;durP2;ratioP2;P2;SDS_P1;SDS_P2;PMS_P1;PMS_P2;Temp;Humidity;BMP_temperature;BMP_pressure;BME280_temperature;BME280_humidity;BME280_pressure;Samples;Min_cycle;Max_cycle;Signal;HPM_P1;HPM_P2
2023/03/11 00:00:37;;;;;;;0.00;0.00;;;0.20;99.90;;;;;;5133962;27;20043;-80
2023/03/11 00:03:05;;;;;;;0.00;0.00;;;0.10;99.90;;;;;;5133867;27;20043;-81
2023/03/11 00:05:34;;;;;;;0.08;0.08;;;0.10;99.90;;;;;;5133853;27;20043;-81
2023/03/11 00:08:00;;;;;;;0.00;0.00;;;0.10;99.90;;;;;;5116797;28;20051;-81
2023/03/11 00:10:47;;;;;;;0.00;0.00;;;0.10;99.90;;;;;;5134225;27;20082;-81
2023/03/11 00:13:14;;;;;;;0.00;0.00;;;0.10;99.90;;;;;;5133038;28;20455;-81
2023/03/11 00:15:45;;;;;;;0.00;0.00;;;0.10;99.90;;;;;;5133809;28;20129;-81
2023/03/11 00:18:11;;;;;;;0.00;0.00;;;0.20;99.90;;;;;;5116593;28;20080;-81
2023/03/11 00:20:40;;;;;;;0.00;0.00;;;0.20;99.90;;;;;;5116285;28;20047;-81
2023/03/11 00:23:07;;;;;;;0.00;0.00;;;0.30;99.90;;;;;;5115974;28;20181;-81
2023/03/11 00:25:35;;;;;;;0.00;0.00;;;0.30;99.90;;;;;;5133914;28;20074;-80
2023/03/11 00:28:06;;;;;;;0.00;0.00;;;0.40;99.90;;;;;;5133283;28;20039;-80
2023/03/11 00:30:31;;;;;;;0.00;0.00;;;0.40;99.90;;;;;;5133560;28;20035;-80
2023/03/11 00:32:58;;;;;;;0.00;0.00;;;0.50;99.90;;;;;;5099312;28;20043;-81
2023/03/11 00:35:27;;;;;;;0.00;0.00;;;0.50;99.90;;;;;;5117041;28;20138;-80
2023/03/11 00:37:55;;;;;;;0.10;0.10;;;0.50;99.90;;;;;;5133356;28;20393;-80
2023/03/11 00:40:23;;;;;;;0.00;0.00;;;0.50;99.90;;;;;;5117109;27;20043;-80
2023/03/11 00:42:48;;;;;;;0.00;0.00;;;0.60;99.90;;;;;;5120853;27;20390;-81
2023/03/11 00:45:15;;;;;;;0.00;0.00;;;0.60;99.90;;;;;;5120607;27;20047;-81
2023/03/11 00:47:40;;;;;;;0.00;0.00;;;0.60;99.90;;;;;;5103493;27;20043;-80
2023/03/11 00:50:08;;;;;;;0.00;0.00;;;0.60;99.90;;;;;;5120389;27;20035;-80
2023/03/11 00:52:34;;;;;;;0.00;0.00;;;0.60;99.90;;;;;;5119801;27;20043;-81
2023/03/11 00:55:00;;;;;;;0.20;0.00;;;0.60;99.90;;;;;;5103740;27;20471;-80
2023/03/11 00:57:28;;;;;;;0.00;0.00;;;0.60;99.90;;;;;;5119770;27;20104;-81
2023/03/11 00:59:54;;;;;;;0.00;0.00;;;0.70;99.90;;;;;;5137029;27;20047;-80
2023/03/11 01:02:20;;;;;;;1.35;0.63;;;0.70;99.90;;;;;;5137218;27;20129;-80
2023/03/11 01:04:46;;;;;;;0.00;0.00;;;0.60;99.90;;;;;;5103192;27;20376;-80
2023/03/11 01:07:12;;;;;;;0.00;0.00;;;0.50;99.90;;;;;;5136813;27;20051;-80
2023/03/11 01:09:38;;;;;;;0.00;0.00;;;0.50;99.90;;;;;;5119930;27;20050;-81
2023/03/11 01:12:04;;;;;;;0.00;0.00;;;0.40;99.90;;;;;;5119820;27;20035;-81
2023/03/11 01:14:29;;;;;;;0.00;0.00;;;0.40;99.90;;;;;;5119559;27;20121;-81
2023/03/11 01:16:55;;;;;;;0.00;0.00;;;0.40;99.90;;;;;;5119965;27;20051;-81
2023/03/11 01:19:21;;;;;;;0.00;0.00;;;0.40;99.90;;;;;;5119907;27;20112;-81
2023/03/11 01:21:47;;;;;;;0.00;0.00;;;0.30;99.90;;;;;;5119156;27;20046;-81
2023/03/11 01:24:12;;;;;;;0.08;0.08;;;0.20;99.90;;;;;;5119742;27;20390;-81
2023/03/11 01:26:38;;;;;;;0.00;0.00;;;0.20;99.90;;;;;;5136738;27;20039;-81
2023/03/11 01:29:04;;;;;;;0.00;0.00;;;0.20;99.90;;;;;;5102591;27;20134;-81
2023/03/11 01:31:29;;;;;;;0.00;0.00;;;0.20;99.90;;;;;;5119422;27;20138;-81
2023/03/11 01:33:55;;;;;;;0.00;0.00;;;0.20;99.90;;;;;;5119526;27;20046;-81
2023/03/11 01:36:21;;;;;;;0.00;0.00;;;0.30;99.90;;;;;;5119416;27;20035;-81
2023/03/11 01:38:46;;;;;;;0.00;0.00;;;0.10;99.90;;;;;;5136884;27;20051;-81
2023/03/11 01:41:12;;;;;;;0.05;0.00;;;0.20;99.90;;;;;;5119495;27;20335;-80
2023/03/11 01:43:44;;;;;;;0.00;0.00;;;0.30;99.90;;;;;;5136361;27;20134;-80
2023/03/11 01:46:09;;;;;;;0.00;0.00;;;0.20;99.90;;;;;;5136289;27;20039;-81
2023/03/11 01:48:37;;;;;;;0.00;0.00;;;0.20;99.90;;;;;;5136293;27;20462;-80
2023/03/11 01:51:03;;;;;;;0.00;0.00;;;0.20;99.90;;;;;;5119016;27;20511;-81
2023/03/11 01:53:29;;;;;;;0.00;0.00;;;0.20;99.90;;;;;;5135190;27;20062;-81
2023/03/11 01:55:55;;;;;;;0.00;0.00;;;0.20;99.90;;;;;;5136167;27;20479;-81
2023/03/11 01:58:25;;;;;;;0.00;0.00;;;0.30;99.90;;;;;;5136118;27;20137;-81
2023/03/11 02:00:51;;;;;;;0.00;0.00;;;0.30;99.90;;;;;;5118887;27;20497;-81
2023/03/11 02:03:38;;;;;;;0.00;0.00;;;0.20;99.90;;;;;;5119672;27;20062;-81
2023/03/11 02:06:11;;;;;;;16.98;0.43;;;0.20;99.90;;;;;;5135711;27;20047;-81
2023/03/11 02:08:37;;;;;;;0.00;0.00;;;0.20;99.90;;;;;;5136018;27;20399;-81
2023/03/11 02:11:05;;;;;;;0.00;0.00;;;0.10;99.90;;;;;;5135843;27;20047;-81
2023/03/11 02:13:34;;;;;;;0.03;0.00;;;0.10;99.90;;;;;;5135464;27;20144;-82
2023/03/11 02:16:00;;;;;;;0.00;0.00;;;0.10;99.90;;;;;;5118551;27;20489;-81
2023/03/11 02:18:26;;;;;;;0.00;0.00;;;0.10;99.90;;;;;;5135793;27;20502;-81
2023/03/11 02:21:14;;;;;;;0.00;0.00;;;0.10;99.90;;;;;;5135754;27;20054;-81
2023/03/11 02:23:59;;;;;;;0.00;0.00;;;0.20;99.90;;;;;;5135305;27;20039;-81
2023/03/11 02:26:52;;;;;;;0.00;0.00;;;0.20;99.90;;;;;;5135730;27;20180;-81
2023/03/11 02:29:20;;;;;;;0.00;0.00;;;0.30;99.90;;;;;;5137269;27;20100;-81
2023/03/11 02:31:47;;;;;;;0.15;0.05;;;0.20;99.90;;;;;;5118282;27;20076;-82
2023/03/11 02:34:28;;;;;;;0.00;0.00;;;0.30;99.90;;;;;;5135474;27;20394;-81
2023/03/11 02:36:54;;;;;;;0.00;0.00;;;0.30;99.90;;;;;;5119217;27;20043;-81
2023/03/11 02:39:33;;;;;;;0.00;0.00;;;0.30;99.90;;;;;;5135181;27;20051;-81
2023/03/11 02:42:01;;;;;;;0.00;0.00;;;0.30;99.90;;;;;;5118284;27;20130;-81
2023/03/11 02:44:27;;;;;;;0.00;0.00;;;0.30;99.90;;;;;;5135295;27;20115;-81
2023/03/11 02:46:53;;;;;;;0.00;0.00;;;0.30;99.90;;;;;;5101268;27;20079;-82
2023/03/11 02:49:20;;;;;;;0.00;0.00;;;0.30;99.90;;;;;;5135167;27;20110;-81
2023/03/11 02:51:46;;;;;;;0.03;0.00;;;0.50;99.90;;;;;;5134430;27;20471;-81
2023/03/11 02:54:12;;;;;;;0.00;0.00;;;0.30;99.90;;;;;;5101300;27;20050;-81
2023/03/11 02:56:37;;;;;;;0.00;0.00;;;0.30;99.90;;;;;;5134518;27;20515;-81
2023/03/11 02:59:03;;;;;;;0.00;0.00;;;0.30;99.90;;;;;;5117874;27;20065;-81
2023/03/11 03:01:29;;;;;;;0.00;0.00;;;0.30;99.90;;;;;;5134947;27;20062;-81
2023/03/11 03:03:55;;;;;;;0.00;0.00;;;0.30;99.90;;;;;;5117263;27;20043;-81
2023/03/11 03:06:21;;;;;;;0.00;0.00;;;0.30;99.90;;;;;;5134806;27;20043;-82
2023/03/11 03:08:46;;;;;;;0.00;0.00;;;0.40;99.90;;;;;;5117618;27;20043;-81
2023/03/11 03:11:12;;;;;;;0.00;0.00;;;0.20;99.90;;;;;;5117279;27;20053;-82
2023/03/11 03:13:38;;;;;;;0.00;0.00;;;0.30;99.90;;;;;;5134335;27;20035;-81
2023/03/11 03:16:04;;;;;;;0.10;0.10;;;0.20;99.90;;;;;;5117549;27;20092;-82
2023/03/11 03:18:29;;;;;;;0.00;0.00;;;0.20;99.90;;;;;;5117733;27;20069;-82
2023/03/11 03:20:55;;;;;;;0.00;0.00;;;0.20;99.90;;;;;;5100953;27;20471;-81
2023/03/11 03:23:21;;;;;;;0.00;0.00;;;0.10;99.90;;;;;;5133888;27;20054;-82
2023/03/11 03:25:47;;;;;;;0.00;0.00;;;0.10;99.90;;;;;;5117343;27;20043;-81
2023/03/11 03:28:13;;;;;;;0.08;0.08;;;0.00;99.90;;;;;;5135224;27;20051;-82
2023/03/11 03:30:39;;;;;;;0.00;0.00;;;-0.10;99.90;;;;;;5134419;27;20043;-81
2023/03/11 03:33:06;;;;;;;0.00;0.00;;;-0.10;99.90;;;;;;5134138;27;20432;-82
2023/03/11 03:35:32;;;;;;;0.00;0.00;;;-0.20;99.90;;;;;;5100499;27;20051;-81
2023/03/11 03:37:59;;;;;;;0.63;0.20;;;-0.30;99.90;;;;;;5116752;27;20044;-82
2023/03/11 03:40:25;;;;;;;0.00;0.00;;;-0.40;99.90;;;;;;5133842;27;20506;-82
2023/03/11 03:42:51;;;;;;;0.00;0.00;;;-0.50;99.90;;;;;;5117277;27;20054;-83
2023/03/11 03:45:16;;;;;;;0.00;0.00;;;-0.50;99.90;;;;;;5100039;27;20069;-83
2023/03/11 03:47:42;;;;;;;6.40;0.28;;;-0.60;99.90;;;;;;5133998;27;20043;-83
2023/03/11 03:50:11;;;;;;;0.00;0.00;;;-0.60;99.90;;;;;;5133777;27;20444;-83
2023/03/11 03:52:37;;;;;;;0.00;0.00;;;-0.70;99.90;;;;;;5133063;27;20563;-83
2023/03/11 03:55:04;;;;;;;0.00;0.00;;;-0.70;99.90;;;;;;5133985;27;20054;-82
2023/03/11 03:57:30;;;;;;;0.00;0.00;;;-0.80;99.90;;;;;;5116240;28;20427;-82
2023/03/11 03:59:56;;;;;;;0.00;0.00;;;-0.80;99.90;;;;;;5133919;27;20047;-82
2023/03/11 04:02:22;;;;;;;0.00;0.00;;;-0.80;99.90;;;;;;5116634;27;20053;-82
2023/03/11 04:04:48;;;;;;;0.00;0.00;;;-0.80;99.90;;;;;;5116349;27;20096;-83
2023/03/11 04:07:13;;;;;;;0.00;0.00;;;-0.80;99.90;;;;;;5116648;27;20555;-82
2023/03/11 04:09:41;;;;;;;0.00;0.00;;;-0.80;99.90;;;;;;5117026;28;20110;-83
2023/03/11 04:12:10;;;;;;;0.00;0.00;;;-0.80;99.90;;;;;;5143019;27;20103;-82
2023/03/11 04:14:36;;;;;;;0.17;0.10;;;-0.90;99.90;;;;;;5125458;27;20102;-83
2023/03/11 04:17:02;;;;;;;0.00;0.00;;;-0.90;99.90;;;;;;5133773;28;20043;-83
2023/03/11 04:19:28;;;;;;;0.10;0.10;;;-1.00;99.90;;;;;;5134055;28;20202;-83
2023/03/11 04:21:53;;;;;;;0.00;0.00;;;-1.00;99.90;;;;;;5116174;28;20046;-83
2023/03/11 04:24:19;;;;;;;0.00;0.00;;;-1.10;99.90;;;;;;5133902;28;20100;-83
2023/03/11 04:26:45;;;;;;;0.03;0.03;;;-1.10;99.90;;;;;;5116459;28;20521;-83
2023/03/11 04:29:10;;;;;;;0.25;0.25;;;-1.20;99.90;;;;;;5133772;28;20128;-82
2023/03/11 04:31:36;;;;;;;0.00;0.00;;;-1.20;99.90;;;;;;5099702;28;20058;-83
2023/03/11 04:34:02;;;;;;;0.00;0.00;;;-1.30;99.90;;;;;;5134086;28;20043;-83
2023/03/11 04:36:28;;;;;;;0.00;0.00;;;-1.30;99.90;;;;;;5099744;28;20042;-83
2023/03/11 04:38:55;;;;;;;0.00;0.00;;;-1.30;99.90;;;;;;5100553;28;20055;-83
2023/03/11 04:41:21;;;;;;;0.10;0.10;;;-1.30;99.90;;;;;;5133654;28;20054;-83
2023/03/11 04:43:46;;;;;;;0.00;0.00;;;-1.40;99.90;;;;;;5099610;28;20043;-83
2023/03/11 04:46:12;;;;;;;0.00;0.00;;;-1.40;99.90;;;;;;5134472;28;20126;-83
2023/03/11 04:48:38;;;;;;;0.00;0.00;;;-1.40;99.90;;;;;;5134398;28;20048;-82
2023/03/11 04:51:04;;;;;;;0.00;0.00;;;-1.50;99.90;;;;;;5099171;28;20057;-82
2023/03/11 04:53:30;;;;;;;0.00;0.00;;;-1.50;99.90;;;;;;5132597;28;20126;-83
2023/03/11 04:55:55;;;;;;;0.00;0.00;;;-1.60;99.90;;;;;;5132968;28;20126;-82
2023/03/11 04:58:21;;;;;;;0.00;0.00;;;-1.60;99.90;;;;;;5116253;28;20090;-82
2023/03/11 05:00:47;;;;;;;0.00;0.00;;;-1.60;99.90;;;;;;5133210;28;20187;-82
2023/03/11 05:03:12;;;;;;;0.00;0.00;;;-1.60;99.90;;;;;;5132979;28;20088;-82
2023/03/11 05:05:38;;;;;;;0.20;0.20;;;-1.70;99.90;;;;;;5116262;28;20086;-83
2023/03/11 05:08:05;;;;;;;0.00;0.00;;;-1.70;99.90;;;;;;5116293;28;20138;-82
2023/03/11 05:10:31;;;;;;;0.10;0.10;;;-1.70;99.90;;;;;;5132897;28;20498;-83
2023/03/11 05:12:56;;;;;;;0.00;0.00;;;-1.70;99.90;;;;;;5115723;28;20085;-83
2023/03/11 05:15:22;;;;;;;0.00;0.00;;;-1.80;99.90;;;;;;5099112;28;20081;-82
2023/03/11 05:17:47;;;;;;;0.00;0.00;;;-1.80;99.90;;;;;;5116221;28;20085;-82
2023/03/11 05:20:13;;;;;;;0.13;0.13;;;-1.80;99.90;;;;;;5116460;28;20043;-83
2023/03/11 05:22:39;;;;;;;0.00;0.00;;;-1.80;99.90;;;;;;5132107;28;20433;-82
2023/03/11 05:25:06;;;;;;;0.00;0.00;;;-1.80;99.90;;;;;;5133824;28;20043;-82
2023/03/11 05:27:32;;;;;;;0.00;0.00;;;-1.80;99.90;;;;;;5133985;27;20043;-81
2023/03/11 05:29:57;;;;;;;0.00;0.00;;;-1.80;99.90;;;;;;5136308;27;20100;-80
2023/03/11 05:32:23;;;;;;;0.00;0.00;;;-1.80;99.90;;;;;;5136636;27;20066;-82
2023/03/11 05:34:49;;;;;;;0.00;0.00;;;-1.90;99.90;;;;;;5119549;27;20042;-82
2023/03/11 05:37:15;;;;;;;0.00;0.00;;;-1.90;99.90;;;;;;5136471;27;20043;-82
2023/03/11 05:39:41;;;;;;;0.00;0.00;;;-1.90;99.90;;;;;;5136254;27;20078;-82
2023/03/11 05:42:07;;;;;;;0.00;0.00;;;-1.90;99.90;;;;;;5131559;27;20062;-82
2023/03/11 05:44:33;;;;;;;0.00;0.00;;;-1.90;99.90;;;;;;5135287;27;20372;-83
2023/03/11 05:46:59;;;;;;;0.35;0.35;;;-2.00;99.90;;;;;;5135089;27;20054;-82
2023/03/11 05:49:25;;;;;;;0.00;0.00;;;-2.00;99.90;;;;;;5118434;27;20047;-82
2023/03/11 05:51:53;;;;;;;0.00;0.00;;;-2.00;99.90;;;;;;5134228;27;20043;-82
2023/03/11 05:54:19;;;;;;;0.00;0.00;;;-1.80;99.90;;;;;;5135443;27;20085;-82
2023/03/11 05:56:46;;;;;;;1.42;0.05;;;-2.00;99.90;;;;;;5134727;27;20128;-82
2023/03/11 05:59:13;;;;;;;0.00;0.00;;;-2.00;99.90;;;;;;5118244;27;20135;-82
2023/03/11 06:01:40;;;;;;;0.00;0.00;;;-2.00;99.90;;;;;;5083865;27;20410;-82
2023/03/11 06:04:06;;;;;;;0.00;0.00;;;-2.00;99.90;;;;;;5117982;27;20047;-82
2023/03/11 06:06:32;;;;;;;0.00;0.00;;;-2.10;99.90;;;;;;5101775;28;20063;-82
2023/03/11 06:08:58;;;;;;;0.17;0.08;;;-2.10;99.90;;;;;;5095643;28;20139;-82
2023/03/11 06:11:24;;;;;;;0.00;0.00;;;-2.00;99.90;;;;;;5093180;28;20063;-82
2023/03/11 06:13:55;;;;;;;0.00;0.00;;;-2.00;99.90;;;;;;5096755;28;20048;-82
2023/03/11 06:16:22;;;;;;;0.00;0.00;;;-2.00;99.90;;;;;;5093631;28;20502;-82
2023/03/11 06:18:48;;;;;;;0.00;0.00;;;-2.10;99.90;;;;;;5105815;28;20058;-82
2023/03/11 06:21:17;;;;;;;0.00;0.00;;;-2.00;99.90;;;;;;5112297;28;20387;-81
2023/03/11 06:23:42;;;;;;;0.00;0.00;;;-2.00;99.90;;;;;;5097034;28;20044;-81
2023/03/11 06:26:11;;;;;;;0.00;0.00;;;-1.90;99.90;;;;;;5097635;28;20108;-81
2023/03/11 06:28:36;;;;;;;0.00;0.00;;;-1.90;99.90;;;;;;5109947;28;20104;-82
2023/03/11 06:31:25;;;;;;;0.00;0.00;;;-1.90;99.90;;;;;;5092500;28;20044;-82
2023/03/11 06:33:52;;;;;;;0.00;0.00;;;-1.90;99.90;;;;;;5090220;28;20514;-82
2023/03/11 06:36:19;;;;;;;0.00;0.00;;;-1.80;99.90;;;;;;5094031;28;20117;-82
2023/03/11 06:38:48;;;;;;;0.00;0.00;;;-1.80;99.90;;;;;;5132948;27;20054;-82
2023/03/11 06:41:15;;;;;;;0.00;0.00;;;-1.70;99.90;;;;;;5091383;28;20059;-82
2023/03/11 06:43:41;;;;;;;0.00;0.00;;;-1.60;99.90;;;;;;5110749;27;20131;-82
2023/03/11 06:46:09;;;;;;;0.00;0.00;;;-1.50;99.90;;;;;;5106169;28;20039;-82
2023/03/11 06:48:34;;;;;;;0.00;0.00;;;-1.50;99.90;;;;;;5103646;28;20490;-82
2023/03/11 06:51:00;;;;;;;0.00;0.00;;;-1.40;99.90;;;;;;5096224;28;20104;-82
2023/03/11 06:53:28;;;;;;;0.80;0.40;;;-1.40;99.90;;;;;;5089599;28;20407;-83
2023/03/11 06:56:06;;;;;;;0.00;0.00;;;-1.40;99.90;;;;;;5125034;27;20481;-82
2023/03/11 06:58:33;;;;;;;0.00;0.00;;;-1.30;99.90;;;;;;5137531;27;20082;-82
2023/03/11 07:01:09;;;;;;;0.00;0.00;;;-1.30;99.90;;;;;;5120440;27;20118;-82
2023/03/11 07:03:35;;;;;;;0.00;0.00;;;-1.10;99.90;;;;;;5137072;27;20110;-81
2023/03/11 07:06:01;;;;;;;0.00;0.00;;;-1.00;99.90;;;;;;5120606;27;20474;-82
2023/03/11 07:08:27;;;;;;;0.73;0.25;;;-0.90;99.90;;;;;;5136974;27;20050;-81
2023/03/11 07:11:21;;;;;;;0.00;0.00;;;-0.80;99.90;;;;;;5155487;27;20439;-81
2023/03/11 07:13:46;;;;;;;0.00;0.00;;;-0.50;99.90;;;;;;5112306;27;20051;-81
2023/03/11 07:16:15;;;;;;;0.00;0.00;;;-0.20;99.90;;;;;;5116440;27;20046;-82
2023/03/11 07:18:42;;;;;;;0.00;0.00;;;0.50;99.90;;;;;;5116270;27;20054;-82
2023/03/11 07:21:08;;;;;;;0.00;0.00;;;1.30;99.90;;;;;;5136651;27;20046;-81
2023/03/11 07:23:34;;;;;;;0.10;0.10;;;2.40;99.90;;;;;;5135956;27;20050;-81
2023/03/11 07:26:00;;;;;;;0.00;0.00;;;3.30;99.90;;;;;;5119610;27;20043;-81
2023/03/11 07:28:28;;;;;;;0.00;0.00;;;3.70;98.60;;;;;;5119637;27;20053;-80
2023/03/11 07:30:54;;;;;;;0.00;0.00;;;4.00;95.50;;;;;;5138048;27;20046;-84
2023/03/11 07:33:22;;;;;;;0.00;0.00;;;3.70;91.70;;;;;;5115610;27;20129;-85
2023/03/11 07:35:48;;;;;;;0.00;0.00;;;3.40;79.30;;;;;;5133465;27;20562;-81
2023/03/11 07:38:16;;;;;;;0.00;0.00;;;3.10;72.00;;;;;;5119177;27;20501;-82
2023/03/11 07:40:42;;;;;;;0.05;0.05;;;2.90;76.30;;;;;;5114676;27;20491;-82
2023/03/11 07:43:08;;;;;;;0.00;0.00;;;2.90;86.40;;;;;;5133556;27;20050;-81
2023/03/11 07:45:34;;;;;;;0.00;0.00;;;3.00;89.10;;;;;;5081942;27;20046;-83
2023/03/11 07:48:00;;;;;;;0.00;0.00;;;2.90;93.40;;;;;;5116769;27;20035;-83
2023/03/11 07:50:25;;;;;;;0.00;0.00;;;2.80;90.80;;;;;;5110106;27;20042;-82
2023/03/11 07:52:51;;;;;;;0.00;0.00;;;2.60;92.20;;;;;;5127482;27;20046;-83
2023/03/11 07:55:17;;;;;;;0.00;0.00;;;2.50;92.60;;;;;;5131491;27;20049;-83
2023/03/11 07:57:45;;;;;;;0.00;0.00;;;2.50;94.70;;;;;;5098979;27;20107;-82
2023/03/11 08:00:11;;;;;;;0.00;0.00;;;2.50;95.40;;;;;;5129189;27;20051;-81
2023/03/11 08:02:38;;;;;;;0.00;0.00;;;2.40;94.30;;;;;;5094366;28;20072;-84
2023/03/11 08:05:04;;;;;;;0.20;0.20;;;2.30;94.70;;;;;;5128364;27;20051;-83
2023/03/11 08:07:31;;;;;;;0.00;0.00;;;2.30;95.00;;;;;;5114849;27;20049;-82
2023/03/11 08:09:57;;;;;;;0.00;0.00;;;2.30;94.70;;;;;;5109004;27;20506;-86
2023/03/11 08:12:23;;;;;;;0.00;0.00;;;2.30;94.90;;;;;;5116980;27;20047;-82
2023/03/11 08:14:49;;;;;;;0.00;0.00;;;2.40;94.10;;;;;;5135506;27;20061;-84
2023/03/11 08:17:15;;;;;;;0.00;0.00;;;2.60;94.00;;;;;;5136865;27;20043;-83
2023/03/11 08:19:40;;;;;;;2.08;0.52;;;2.90;96.30;;;;;;5120041;27;20394;-83
2023/03/11 08:22:06;;;;;;;0.77;0.05;;;3.00;91.00;;;;;;5136067;27;20042;-81
2023/03/11 08:24:32;;;;;;;4.30;0.10;;;3.30;91.90;;;;;;5119949;27;20034;-80
2023/03/11 08:26:58;;;;;;;0.00;0.00;;;3.90;93.80;;;;;;5137024;27;20130;-80
2023/03/11 08:29:24;;;;;;;0.00;0.00;;;4.60;86.20;;;;;;5119670;27;20138;-79
2023/03/11 08:31:50;;;;;;;0.00;0.00;;;4.80;99.90;;;;;;5136621;27;20095;-80
2023/03/11 08:34:15;;;;;;;0.00;0.00;;;4.90;99.90;;;;;;5120073;27;20507;-81
2023/03/11 08:36:41;;;;;;;0.00;0.00;;;5.00;99.90;;;;;;5120567;27;20039;-80
2023/03/11 08:39:07;;;;;;;0.00;0.00;;;5.10;99.90;;;;;;5155250;27;20137;-81
2023/03/11 08:41:33;;;;;;;0.00;0.00;;;5.20;99.90;;;;;;5136203;27;20427;-80
2023/03/11 08:43:59;;;;;;;0.00;0.00;;;5.30;99.90;;;;;;5136051;27;20042;-80
2023/03/11 08:46:26;;;;;;;0.00;0.00;;;5.30;99.90;;;;;;5136383;27;20155;-80
2023/03/11 08:48:52;;;;;;;0.00;0.00;;;5.20;99.90;;;;;;5119363;27;20054;-81
2023/03/11 08:51:18;;;;;;;0.00;0.00;;;5.10;99.90;;;;;;5117191;27;20108;-81
2023/03/11 08:53:45;;;;;;;0.00;0.00;;;5.10;99.90;;;;;;5118409;27;20038;-85
2023/03/11 08:56:10;;;;;;;0.00;0.00;;;5.00;99.90;;;;;;5118711;27;20087;-81
2023/03/11 08:58:36;;;;;;;0.00;0.00;;;5.10;99.90;;;;;;5136767;27;20554;-81
2023/03/11 09:01:02;;;;;;;0.00;0.00;;;5.20;99.90;;;;;;5119821;27;20043;-80
2023/03/11 09:03:34;;;;;;;0.00;0.00;;;5.40;99.90;;;;;;5140404;27;20034;-81
2023/03/11 09:06:05;;;;;;;0.00;0.00;;;5.60;99.90;;;;;;5140786;27;20054;-79
2023/03/11 09:08:31;;;;;;;0.00;0.00;;;5.70;99.90;;;;;;5140871;27;20050;-80
2023/03/11 09:10:56;;;;;;;0.00;0.00;;;6.00;99.90;;;;;;5140577;27;20049;-80
2023/03/11 09:13:22;;;;;;;0.00;0.00;;;6.10;99.90;;;;;;5123209;27;20042;-81
2023/03/11 09:15:49;;;;;;;0.00;0.00;;;6.40;99.90;;;;;;5123344;27;20038;-82
2023/03/11 09:18:16;;;;;;;0.00;0.00;;;6.50;99.90;;;;;;5140114;27;20443;-83
2023/03/11 09:20:43;;;;;;;0.00;0.00;;;6.60;99.90;;;;;;5139871;27;20039;-82
2023/03/11 09:23:10;;;;;;;0.30;0.10;;;6.80;99.90;;;;;;5139765;27;20478;-82
2023/03/11 09:25:36;;;;;;;0.00;0.00;;;7.00;99.90;;;;;;5123444;27;20478;-82
2023/03/11 09:28:02;;;;;;;0.10;0.10;;;7.10;99.90;;;;;;5105920;27;20103;-81
2023/03/11 09:30:27;;;;;;;0.00;0.00;;;7.10;99.90;;;;;;5139883;27;20071;-81
2023/03/11 09:32:53;;;;;;;0.00;0.00;;;7.30;99.90;;;;;;5140000;27;20066;-81
2023/03/11 09:35:19;;;;;;;0.30;0.30;;;7.30;99.90;;;;;;5088775;27;20039;-81
2023/03/11 09:37:44;;;;;;;19.65;1.40;;;7.60;99.90;;;;;;5122798;27;20053;-81
2023/03/11 09:40:15;;;;;;;0.00;0.00;;;7.80;99.90;;;;;;5158466;27;20360;-81
2023/03/11 09:42:53;;;;;;;0.00;0.00;;;8.00;99.90;;;;;;5158095;27;20087;-81
2023/03/11 09:45:27;;;;;;;0.00;0.00;;;8.20;99.90;;;;;;5122572;27;20487;-82
2023/03/11 09:48:02;;;;;;;0.00;0.00;;;8.40;99.90;;;;;;5155274;27;20042;-83
2023/03/11 09:50:48;;;;;;;0.00;0.00;;;8.50;99.90;;;;;;5122667;27;20280;-81
2023/03/11 09:53:39;;;;;;;0.00;0.00;;;8.70;99.90;;;;;;5139087;27;20119;-81
2023/03/11 09:56:08;;;;;;;0.00;0.00;;;8.90;99.90;;;;;;5139535;27;20402;-81
2023/03/11 09:58:43;;;;;;;0.00;0.00;;;9.10;99.90;;;;;;5140249;27;20039;-81
2023/03/11 10:01:15;;;;;;;;;;;9.20;99.90;;;;;;5122934;27;20050;-81
2023/03/11 10:03:42;;;;;;;0.00;0.00;;;9.30;99.90;;;;;;5139552;27;20397;-83
2023/03/11 10:06:15;;;;;;;0.00;0.00;;;9.50;99.90;;;;;;5157776;27;20039;-83
2023/03/11 10:08:46;;;;;;;1.95;0.10;;;9.60;99.90;;;;;;5140130;27;20043;-84
2023/03/11 10:11:30;;;;;;;0.00;0.00;;;9.70;99.90;;;;;;5139522;27;20046;-84
2023/03/11 10:14:19;;;;;;;0.00;0.00;;;9.60;99.90;;;;;;5138573;27;20035;-86
2023/03/11 10:17:11;;;;;;;0.00;0.00;;;9.70;99.90;;;;;;5122592;27;20634;-86
2023/03/11 10:19:52;;;;;;;5.75;0.85;;;9.80;99.90;;;;;;5090891;27;20047;-86
2023/03/11 10:22:31;;;;;;;0.00;0.00;;;10.00;99.90;;;;;;5121609;27;20394;-86
2023/03/11 10:25:02;;;;;;;0.00;0.00;;;9.90;99.90;;;;;;5122205;27;20049;-85
2023/03/11 10:27:47;;;;;;;0.80;0.00;;;9.90;99.90;;;;;;5122030;27;20062;-85
2023/03/11 10:30:38;;;;;;;0.00;0.00;;;9.80;99.90;;;;;;5121934;27;20047;-86
2023/03/11 10:33:28;;;;;;;0.00;0.00;;;10.00;99.90;;;;;;5139182;27;20228;-86
2023/03/11 10:35:57;;;;;;;0.00;0.00;;;10.00;99.90;;;;;;5060145;27;20398;-86
2023/03/11 10:38:25;;;;;;;0.00;0.00;;;9.80;99.90;;;;;;5131062;27;20046;-86
2023/03/11 10:40:56;;;;;;;3.78;1.02;;;10.00;99.90;;;;;;5138434;27;20077;-86
2023/03/11 10:43:31;;;;;;;0.00;0.00;;;10.10;99.90;;;;;;5121566;27;20490;-86
2023/03/11 10:45:58;;;;;;;0.00;0.00;;;9.90;99.90;;;;;;5121921;27;20050;-86
2023/03/11 10:48:25;;;;;;;0.00;0.00;;;9.80;99.90;;;;;;5138209;27;20046;-85
2023/03/11 10:51:02;;;;;;;0.00;0.00;;;9.80;99.90;;;;;;5138421;27;20126;-84
2023/03/11 10:53:29;;;;;;;0.00;0.00;;;9.70;99.90;;;;;;5120950;27;20042;-85
2023/03/11 10:55:57;;;;;;;0.05;0.00;;;9.90;99.90;;;;;;5138580;27;20046;-84
2023/03/11 10:58:28;;;;;;;0.00;0.00;;;9.80;99.90;;;;;;5138183;27;20163;-86
2023/03/11 11:01:02;;;;;;;0.00;0.00;;;9.80;99.90;;;;;;5138675;27;20046;-85
2023/03/11 11:03:28;;;;;;;0.00;0.00;;;10.00;99.90;;;;;;5121580;27;20413;-84
2023/03/11 11:06:06;;;;;;;0.00;0.00;;;10.00;99.90;;;;;;5121328;27;20087;-90
2023/03/11 11:08:32;;;;;;;0.00;0.00;;;10.10;99.90;;;;;;5116302;27;20092;-83
2023/03/11 11:11:01;;;;;;;0.00;0.00;;;10.10;99.90;;;;;;5117657;27;20043;-83
2023/03/11 11:13:30;;;;;;;0.00;0.00;;;10.00;99.90;;;;;;5117650;27;20043;-83
2023/03/11 11:15:58;;;;;;;0.00;0.00;;;10.00;99.90;;;;;;5100734;27;20046;-82
2023/03/11 11:18:26;;;;;;;0.00;0.00;;;10.00;99.90;;;;;;5100585;27;20122;-82
2023/03/11 11:21:05;;;;;;;0.00;0.00;;;10.00;99.90;;;;;;5117345;27;20043;-81
2023/03/11 11:23:46;;;;;;;0.13;0.00;;;10.00;99.90;;;;;;5117185;27;20356;-81
2023/03/11 11:26:24;;;;;;;0.00;0.00;;;9.90;99.90;;;;;;5117504;27;20104;-81
2023/03/11 11:29:08;;;;;;;0.00;0.00;;;9.90;99.90;;;;;;5117350;27;20474;-81
2023/03/11 11:31:34;;;;;;;0.07;0.07;;;9.90;99.90;;;;;;5117383;27;20062;-81
2023/03/11 11:34:00;;;;;;;0.00;0.00;;;10.00;99.90;;;;;;5135861;27;20039;-81
2023/03/11 11:36:32;;;;;;;0.00;0.00;;;10.00;99.90;;;;;;5117260;27;20046;-81
2023/03/11 11:39:03;;;;;;;0.17;0.13;;;9.90;99.90;;;;;;5135310;27;20054;-81
2023/03/11 11:41:32;;;;;;;0.00;0.00;;;9.90;99.90;;;;;;5100262;27;20050;-81
2023/03/11 11:44:02;;;;;;;0.00;0.00;;;10.10;99.90;;;;;;5126900;27;20043;-82
2023/03/11 11:46:43;;;;;;;0.00;0.00;;;10.20;99.90;;;;;;5120485;27;20054;-81
2023/03/11 11:49:22;;;;;;;0.00;0.00;;;10.30;99.90;;;;;;5137597;27;20038;-81
2023/03/11 11:51:51;;;;;;;0.00;0.00;;;10.30;99.90;;;;;;5137796;27;20079;-82
2023/03/11 11:54:33;;;;;;;0.00;0.00;;;10.30;99.90;;;;;;5120482;27;20047;-82
2023/03/11 11:57:07;;;;;;;0.00;0.00;;;10.30;99.90;;;;;;5137497;27;20084;-82
2023/03/11 11:59:33;;;;;;;0.00;0.00;;;10.20;99.90;;;;;;5136818;27;20089;-81
2023/03/11 12:02:25;;;;;;;0.00;0.00;;;10.30;99.90;;;;;;5137890;27;20070;-81
2023/03/11 12:04:59;;;;;;;0.00;0.00;;;10.50;99.90;;;;;;5120483;27;20046;-82
2023/03/11 12:07:37;;;;;;;0.00;0.00;;;10.40;99.90;;;;;;5155566;27;20039;-81
2023/03/11 12:10:15;;;;;;;0.20;0.17;;;10.40;99.90;;;;;;5137059;27;20046;-81
2023/03/11 12:12:54;;;;;;;0.00;0.00;;;10.60;99.90;;;;;;5120054;27;20038;-82
2023/03/11 12:15:37;;;;;;;0.00;0.00;;;10.60;99.20;;;;;;5137436;27;20046;-82
2023/03/11 12:18:11;;;;;;;0.00;0.00;;;10.60;99.90;;;;;;5137388;27;20042;-82
2023/03/11 12:20:46;;;;;;;0.00;0.00;;;10.60;99.90;;;;;;5137186;27;20478;-82
2023/03/11 12:23:16;;;;;;;;;;;10.60;99.40;;;;;;5137322;27;20475;-82
2023/03/11 12:25:52;;;;;;;0.00;0.00;;;10.50;97.80;;;;;;5137232;27;19915;-84
2023/03/11 12:28:28;;;;;;;0.00;0.00;;;10.50;97.80;;;;;;5137285;27;20054;-82
2023/03/11 12:30:59;;;;;;;0.00;0.00;;;10.70;96.80;;;;;;5119984;27;20043;-83
2023/03/11 12:33:38;;;;;;;0.00;0.00;;;10.90;96.40;;;;;;5136971;27;20470;-82
2023/03/11 12:36:05;;;;;;;0.10;0.03;;;11.00;96.00;;;;;;5137333;27;20046;-83
2023/03/11 12:38:33;;;;;;;1.85;0.35;;;11.00;95.60;;;;;;5124308;27;20047;-82
2023/03/11 12:41:00;;;;;;;0.00;0.00;;;11.30;95.90;;;;;;5141230;27;20057;-83
2023/03/11 12:43:34;;;;;;;0.00;0.00;;;11.50;94.90;;;;;;5124033;27;20133;-83
2023/03/11 12:46:02;;;;;;;0.00;0.00;;;11.40;97.00;;;;;;5123949;27;20049;-83
2023/03/11 12:48:32;;;;;;;0.28;0.28;;;11.10;96.10;;;;;;5141105;27;20081;-83
2023/03/11 12:50:59;;;;;;;0.00;0.00;;;10.60;95.40;;;;;;5141276;27;20051;-83
2023/03/11 12:53:48;;;;;;;0.00;0.00;;;10.20;94.70;;;;;;5140024;27;20050;-83
2023/03/11 12:56:33;;;;;;;0.00;0.00;;;9.90;95.40;;;;;;5140870;27;20466;-83
2023/03/11 12:59:05;;;;;;;0.00;0.00;;;9.80;95.50;;;;;;5123113;27;20062;-83
2023/03/11 13:01:33;;;;;;;0.55;0.00;;;9.60;95.70;;;;;;5140897;27;20108;-83